Webster, NY

7:08 PM EST on January 26, 2015 (GMT -0500)
Webster | Change Station
CLOSE
Current Station
Personal Weather Station
Location: Webster, NY
Elevation: 364 ft
Nearby Weather Stations

Elev 364 ft 43.24 °N, 77.47 °W | Updated 1 minute ago

Snow
Snow
18.0 °F
Feels Like 18 °F
N
2.7
Wind Variable Wind from South

Today
High -- | Low -- °F
--% Chance of Precip.
Yesterday
High -- | Low -- °F
Precip. -- in
7:31 AM 5:13 PM
Waxing Crescent, 48% visible
Pressure 30.00 in
Visibility 4.0 miles
Clouds Mostly Cloudy 4300 ft
Overcast 5500 ft
Windchill 18 °F
Dew Point 13 °F
Humidity 82%
Rainfall 0.00 in
Snow Depth Not available.
UV 0 out of 12
Pollen .10 out of 12
Air Quality Not available.
Flu Activity Not available.
METAR KROC 262354Z 07005KT 4SM -SN BKN043 OVC055 M08/M11 A2996 RMK AO2 SLP158 4/001 P0001 60006 T10781106 11078 21089 51011

More Conditions Fewer Conditions

Pressure 30.00 in
Visibility 4.0 miles
Clouds Mostly Cloudy 4300 ft
Overcast 5500 ft
Windchill 18 °F
Dew Point 13 °F
Humidity 82%
Rainfall 0.00 in
Snow Depth Not available.
UV 0 out of 12
Pollen .10 out of 12
Air Quality Not available.
Flu Activity Not available.
METAR KROC 262354Z 07005KT 4SM -SN BKN043 OVC055 M08/M11 A2996 RMK AO2 SLP158 4/001 P0001 60006 T10781106 11078 21089 51011

More Conditions Fewer Conditions

10-Day Weather Forecast

Almanac

Astronomy

Jan. 26, 2015 Rise Set
Actual Time
Civil Twilight
Nautical Twilight
Astronomical Twilight
Moon
Length of Visible Light
Length of Day
Tomorrow will be .
, % of the Moon is Illuminated

Today's Extremes

State Highs State Lows

Community

WunderPhotos

Upload Photos

1,790,412 photos uploaded!

WunderBlogs® & News

Nearby

Air Quality

  Air Quality AQ Index Pollutant
Not available.

Snow Depth

Station Depth Elevation

Earthquake Activity

City Distance Mag. Time & Date
Minimum magnitude displayed is 2.5.

Coastal Water Temperatures

Place Temperature

Nearby Weather Stations